sensor_id;sensor_type;location;lat;lon;timestamp;temperature;humidity
20045;DHT22;10183;47.808;9.476;2023-05-09T00:00:49;11.90;99.90
20045;DHT22;10183;47.808;9.476;2023-05-09T00:03:17;11.90;99.90
20045;DHT22;10183;47.808;9.476;2023-05-09T00:05:44;11.80;99.90
20045;DHT22;10183;47.808;9.476;2023-05-09T00:08:11;11.80;99.90
20045;DHT22;10183;47.808;9.476;2023-05-09T00:10:37;11.80;99.90
20045;DHT22;10183;47.808;9.476;2023-05-09T00:13:03;11.90;99.90
20045;DHT22;10183;47.808;9.476;2023-05-09T00:15:29;11.90;99.90
20045;DHT22;10183;47.808;9.476;2023-05-09T00:17:56;12.00;99.90
20045;DHT22;10183;47.808;9.476;2023-05-09T00:20:23;12.00;99.90
20045;DHT22;10183;47.808;9.476;2023-05-09T00:22:49;12.00;99.90
20045;DHT22;10183;47.808;9.476;2023-05-09T00:25:15;12.00;99.90
20045;DHT22;10183;47.808;9.476;2023-05-09T00:27:41;12.00;99.90
20045;DHT22;10183;47.808;9.476;2023-05-09T00:30:08;11.90;99.90
20045;DHT22;10183;47.808;9.476;2023-05-09T00:32:34;12.10;99.90
20045;DHT22;10183;47.808;9.476;2023-05-09T00:35:00;12.10;99.90
20045;DHT22;10183;47.808;9.476;2023-05-09T00:37:28;12.10;99.90
20045;DHT22;10183;47.808;9.476;2023-05-09T00:39:55;12.10;99.90
20045;DHT22;10183;47.808;9.476;2023-05-09T00:42:21;12.20;99.90
20045;DHT22;10183;47.808;9.476;2023-05-09T00:44:47;12.20;99.90
20045;DHT22;10183;47.808;9.476;2023-05-09T00:47:14;12.20;99.90
20045;DHT22;10183;47.808;9.476;2023-05-09T00:49:40;12.20;99.90
20045;DHT22;10183;47.808;9.476;2023-05-09T00:52:06;12.10;99.90
20045;DHT22;10183;47.808;9.476;2023-05-09T00:54:33;12.10;99.90
20045;DHT22;10183;47.808;9.476;2023-05-09T00:56:59;12.10;99.90
20045;DHT22;10183;47.808;9.476;2023-05-09T00:59:26;12.00;99.90
20045;DHT22;10183;47.808;9.476;2023-05-09T01:01:52;11.90;99.90
20045;DHT22;10183;47.808;9.476;2023-05-09T01:04:19;11.80;99.90
20045;DHT22;10183;47.808;9.476;2023-05-09T01:06:57;11.80;99.90
20045;DHT22;10183;47.808;9.476;2023-05-09T01:17:55;11.80;99.90
20045;DHT22;10183;47.808;9.476;2023-05-09T01:20:40;11.80;99.90
20045;DHT22;10183;47.808;9.476;2023-05-09T01:31:47;11.80;99.90
20045;DHT22;10183;47.808;9.476;2023-05-09T01:34:15;11.80;99.90
20045;DHT22;10183;47.808;9.476;2023-05-09T01:36:43;11.80;99.90
20045;DHT22;10183;47.808;9.476;2023-05-09T01:39:12;11.80;99.90
20045;DHT22;10183;47.808;9.476;2023-05-09T01:41:38;11.80;99.90
20045;DHT22;10183;47.808;9.476;2023-05-09T01:44:08;11.80;99.90
20045;DHT22;10183;47.808;9.476;2023-05-09T01:46:36;11.70;99.90
20045;DHT22;10183;47.808;9.476;2023-05-09T01:49:04;11.70;99.90
20045;DHT22;10183;47.808;9.476;2023-05-09T01:51:33;11.70;99.90
20045;DHT22;10183;47.808;9.476;2023-05-09T01:54:02;11.70;99.90
20045;DHT22;10183;47.808;9.476;2023-05-09T01:56:30;11.60;99.90
20045;DHT22;10183;47.808;9.476;2023-05-09T01:58:57;11.50;99.90
20045;DHT22;10183;47.808;9.476;2023-05-09T02:01:24;11.60;99.90
20045;DHT22;10183;47.808;9.476;2023-05-09T02:03:52;11.60;99.90
20045;DHT22;10183;47.808;9.476;2023-05-09T02:06:21;11.70;99.90
20045;DHT22;10183;47.808;9.476;2023-05-09T02:08:48;11.80;99.90
20045;DHT22;10183;47.808;9.476;2023-05-09T02:11:15;11.80;99.90
20045;DHT22;10183;47.808;9.476;2023-05-09T02:13:41;11.70;99.90
20045;DHT22;10183;47.808;9.476;2023-05-09T02:16:07;11.60;99.90
20045;DHT22;10183;47.808;9.476;2023-05-09T02:18:35;11.60;99.90
20045;DHT22;10183;47.808;9.476;2023-05-09T02:21:01;11.70;99.90
20045;DHT22;10183;47.808;9.476;2023-05-09T02:23:28;11.80;99.90
20045;DHT22;10183;47.808;9.476;2023-05-09T02:25:55;11.80;99.90
20045;DHT22;10183;47.808;9.476;2023-05-09T02:28:26;11.90;99.90
20045;DHT22;10183;47.808;9.476;2023-05-09T02:30:56;11.90;99.90
20045;DHT22;10183;47.808;9.476;2023-05-09T02:33:24;11.90;99.90
20045;DHT22;10183;47.808;9.476;2023-05-09T02:35:51;11.90;99.90
20045;DHT22;10183;47.808;9.476;2023-05-09T02:38:18;11.80;99.90
20045;DHT22;10183;47.808;9.476;2023-05-09T02:40:46;11.90;99.90
20045;DHT22;10183;47.808;9.476;2023-05-09T02:43:12;11.90;99.90
20045;DHT22;10183;47.808;9.476;2023-05-09T02:45:40;11.80;99.90
20045;DHT22;10183;47.808;9.476;2023-05-09T02:48:06;11.80;99.90
20045;DHT22;10183;47.808;9.476;2023-05-09T02:50:32;11.80;99.90
20045;DHT22;10183;47.808;9.476;2023-05-09T02:52:58;11.90;99.90
20045;DHT22;10183;47.808;9.476;2023-05-09T02:55:25;11.90;99.90
20045;DHT22;10183;47.808;9.476;2023-05-09T02:57:51;11.90;99.90
20045;DHT22;10183;47.808;9.476;2023-05-09T03:00:18;11.80;99.90
20045;DHT22;10183;47.808;9.476;2023-05-09T03:02:44;11.80;99.90
20045;DHT22;10183;47.808;9.476;2023-05-09T03:05:12;11.80;99.90
20045;DHT22;10183;47.808;9.476;2023-05-09T03:07:38;11.80;99.90
20045;DHT22;10183;47.808;9.476;2023-05-09T03:10:04;11.70;99.90
20045;DHT22;10183;47.808;9.476;2023-05-09T03:12:31;11.60;99.90
20045;DHT22;10183;47.808;9.476;2023-05-09T03:14:57;11.70;99.90
20045;DHT22;10183;47.808;9.476;2023-05-09T03:17:23;11.80;99.90
20045;DHT22;10183;47.808;9.476;2023-05-09T03:19:49;11.80;99.90
20045;DHT22;10183;47.808;9.476;2023-05-09T03:22:15;11.60;99.90
20045;DHT22;10183;47.808;9.476;2023-05-09T03:24:41;11.50;99.90
20045;DHT22;10183;47.808;9.476;2023-05-09T03:27:08;11.50;99.90
20045;DHT22;10183;47.808;9.476;2023-05-09T03:29:34;11.50;99.90
20045;DHT22;10183;47.808;9.476;2023-05-09T03:32:00;11.50;99.90
20045;DHT22;10183;47.808;9.476;2023-05-09T03:34:26;11.50;99.90
20045;DHT22;10183;47.808;9.476;2023-05-09T03:36:53;11.50;99.90
20045;DHT22;10183;47.808;9.476;2023-05-09T03:39:19;11.60;99.90
20045;DHT22;10183;47.808;9.476;2023-05-09T03:41:45;11.70;99.90
20045;DHT22;10183;47.808;9.476;2023-05-09T03:44:11;11.70;99.90
20045;DHT22;10183;47.808;9.476;2023-05-09T03:46:37;11.70;99.90
20045;DHT22;10183;47.808;9.476;2023-05-09T03:49:03;11.70;99.90
20045;DHT22;10183;47.808;9.476;2023-05-09T03:51:30;11.70;99.90
20045;DHT22;10183;47.808;9.476;2023-05-09T03:53:59;11.70;99.90
20045;DHT22;10183;47.808;9.476;2023-05-09T03:56:25;11.80;99.90
20045;DHT22;10183;47.808;9.476;2023-05-09T03:58:51;11.80;99.90
20045;DHT22;10183;47.808;9.476;2023-05-09T04:01:19;11.80;99.90
20045;DHT22;10183;47.808;9.476;2023-05-09T04:03:45;11.80;99.90
20045;DHT22;10183;47.808;9.476;2023-05-09T04:06:11;11.80;99.90
20045;DHT22;10183;47.808;9.476;2023-05-09T04:08:37;11.70;99.90
20045;DHT22;10183;47.808;9.476;2023-05-09T04:11:04;11.70;99.90
20045;DHT22;10183;47.808;9.476;2023-05-09T04:13:30;11.70;99.90
20045;DHT22;10183;47.808;9.476;2023-05-09T04:15:57;11.80;99.90
20045;DHT22;10183;47.808;9.476;2023-05-09T04:18:24;11.80;99.90
20045;DHT22;10183;47.808;9.476;2023-05-09T04:20:50;11.80;99.90
20045;DHT22;10183;47.808;9.476;2023-05-09T04:23:16;11.90;99.90
20045;DHT22;10183;47.808;9.476;2023-05-09T04:25:42;11.90;99.90
20045;DHT22;10183;47.808;9.476;2023-05-09T04:28:08;12.00;99.90
20045;DHT22;10183;47.808;9.476;2023-05-09T04:30:34;11.90;99.90
20045;DHT22;10183;47.808;9.476;2023-05-09T04:33:02;11.80;99.90
20045;DHT22;10183;47.808;9.476;2023-05-09T04:35:29;11.90;99.90
20045;DHT22;10183;47.808;9.476;2023-05-09T04:37:55;11.90;99.90
20045;DHT22;10183;47.808;9.476;2023-05-09T04:40:21;12.00;99.90
20045;DHT22;10183;47.808;9.476;2023-05-09T04:42:47;12.10;99.90
20045;DHT22;10183;47.808;9.476;2023-05-09T04:45:14;12.20;99.90
20045;DHT22;10183;47.808;9.476;2023-05-09T04:47:40;12.20;99.90
20045;DHT22;10183;47.808;9.476;2023-05-09T04:50:06;12.20;99.90
20045;DHT22;10183;47.808;9.476;2023-05-09T04:52:33;12.10;99.90
20045;DHT22;10183;47.808;9.476;2023-05-09T04:54:59;12.00;99.90
20045;DHT22;10183;47.808;9.476;2023-05-09T04:57:26;12.00;99.90
20045;DHT22;10183;47.808;9.476;2023-05-09T04:59:52;12.10;99.90
20045;DHT22;10183;47.808;9.476;2023-05-09T05:02:18;12.10;99.90
20045;DHT22;10183;47.808;9.476;2023-05-09T05:04:46;12.20;99.90
20045;DHT22;10183;47.808;9.476;2023-05-09T05:07:12;12.20;99.90
20045;DHT22;10183;47.808;9.476;2023-05-09T05:09:38;12.20;99.90
20045;DHT22;10183;47.808;9.476;2023-05-09T05:12:04;12.20;99.90
20045;DHT22;10183;47.808;9.476;2023-05-09T05:14:32;12.20;99.90
20045;DHT22;10183;47.808;9.476;2023-05-09T05:16:58;12.30;99.90
20045;DHT22;10183;47.808;9.476;2023-05-09T05:19:24;12.30;99.90
20045;DHT22;10183;47.808;9.476;2023-05-09T05:21:50;12.30;99.90
20045;DHT22;10183;47.808;9.476;2023-05-09T05:24:16;12.40;99.90
20045;DHT22;10183;47.808;9.476;2023-05-09T05:26:42;12.40;99.90
20045;DHT22;10183;47.808;9.476;2023-05-09T05:29:09;12.40;99.90
20045;DHT22;10183;47.808;9.476;2023-05-09T05:31:35;12.50;99.90
20045;DHT22;10183;47.808;9.476;2023-05-09T05:34:01;12.60;99.90
20045;DHT22;10183;47.808;9.476;2023-05-09T05:36:27;12.60;99.90
20045;DHT22;10183;47.808;9.476;2023-05-09T05:38:54;12.70;99.90
20045;DHT22;10183;47.808;9.476;2023-05-09T05:41:20;12.80;99.90
20045;DHT22;10183;47.808;9.476;2023-05-09T05:43:46;12.70;99.90
20045;DHT22;10183;47.808;9.476;2023-05-09T05:46:12;12.70;99.90
20045;DHT22;10183;47.808;9.476;2023-05-09T05:48:38;12.70;99.90
20045;DHT22;10183;47.808;9.476;2023-05-09T05:51:04;12.80;99.90
20045;DHT22;10183;47.808;9.476;2023-05-09T05:53:31;12.80;99.90
20045;DHT22;10183;47.808;9.476;2023-05-09T05:55:57;12.90;99.90
20045;DHT22;10183;47.808;9.476;2023-05-09T05:58:23;12.90;99.90
20045;DHT22;10183;47.808;9.476;2023-05-09T06:00:51;12.90;99.90
20045;DHT22;10183;47.808;9.476;2023-05-09T06:03:17;13.00;99.90
20045;DHT22;10183;47.808;9.476;2023-05-09T06:05:43;13.10;99.90
20045;DHT22;10183;47.808;9.476;2023-05-09T06:08:11;13.20;99.90
20045;DHT22;10183;47.808;9.476;2023-05-09T06:10:37;13.30;99.90
20045;DHT22;10183;47.808;9.476;2023-05-09T06:13:03;13.40;99.90
20045;DHT22;10183;47.808;9.476;2023-05-09T06:15:29;13.50;99.90
20045;DHT22;10183;47.808;9.476;2023-05-09T06:17:56;13.60;99.90
20045;DHT22;10183;47.808;9.476;2023-05-09T06:20:22;13.50;99.90
20045;DHT22;10183;47.808;9.476;2023-05-09T06:22:48;13.60;99.90
20045;DHT22;10183;47.808;9.476;2023-05-09T06:25:14;13.80;99.90
20045;DHT22;10183;47.808;9.476;2023-05-09T06:27:41;13.80;99.90
20045;DHT22;10183;47.808;9.476;2023-05-09T06:30:07;13.60;99.90
20045;DHT22;10183;47.808;9.476;2023-05-09T06:32:34;13.80;99.90
20045;DHT22;10183;47.808;9.476;2023-05-09T06:35:02;14.00;99.90
20045;DHT22;10183;47.808;9.476;2023-05-09T06:37:35;14.10;99.90
20045;DHT22;10183;47.808;9.476;2023-05-09T06:40:02;14.30;99.90
20045;DHT22;10183;47.808;9.476;2023-05-09T06:42:28;14.10;99.90
20045;DHT22;10183;47.808;9.476;2023-05-09T06:44:54;14.20;99.90
20045;DHT22;10183;47.808;9.476;2023-05-09T06:47:21;14.00;99.90
20045;DHT22;10183;47.808;9.476;2023-05-09T06:49:47;14.10;99.90
20045;DHT22;10183;47.808;9.476;2023-05-09T06:52:13;14.50;99.90
20045;DHT22;10183;47.808;9.476;2023-05-09T06:54:40;14.70;99.90
20045;DHT22;10183;47.808;9.476;2023-05-09T06:57:07;14.80;99.90
20045;DHT22;10183;47.808;9.476;2023-05-09T06:59:33;15.00;99.90
20045;DHT22;10183;47.808;9.476;2023-05-09T07:01:59;14.80;99.90
20045;DHT22;10183;47.808;9.476;2023-05-09T07:04:25;14.70;99.90
20045;DHT22;10183;47.808;9.476;2023-05-09T07:06:52;14.70;99.90
20045;DHT22;10183;47.808;9.476;2023-05-09T07:09:18;14.50;99.90
20045;DHT22;10183;47.808;9.476;2023-05-09T07:11:45;14.40;99.90
20045;DHT22;10183;47.808;9.476;2023-05-09T07:14:11;14.50;99.90
20045;DHT22;10183;47.808;9.476;2023-05-09T07:16:38;14.60;99.90
20045;DHT22;10183;47.808;9.476;2023-05-09T07:19:04;14.80;99.90
20045;DHT22;10183;47.808;9.476;2023-05-09T07:21:30;14.80;99.90
20045;DHT22;10183;47.808;9.476;2023-05-09T07:23:59;14.90;99.90
20045;DHT22;10183;47.808;9.476;2023-05-09T07:26:25;15.10;99.90
20045;DHT22;10183;47.808;9.476;2023-05-09T07:28:51;15.50;99.90
20045;DHT22;10183;47.808;9.476;2023-05-09T07:31:18;15.40;99.90
20045;DHT22;10183;47.808;9.476;2023-05-09T07:33:46;15.50;99.90
20045;DHT22;10183;47.808;9.476;2023-05-09T07:36:12;15.40;99.90
20045;DHT22;10183;47.808;9.476;2023-05-09T07:38:39;15.70;99.90
20045;DHT22;10183;47.808;9.476;2023-05-09T07:41:13;15.50;99.90
20045;DHT22;10183;47.808;9.476;2023-05-09T07:43:39;15.50;99.90
20045;DHT22;10183;47.808;9.476;2023-05-09T07:46:05;15.40;99.90
20045;DHT22;10183;47.808;9.476;2023-05-09T07:48:31;15.50;99.90
20045;DHT22;10183;47.808;9.476;2023-05-09T07:50:58;16.00;99.90
20045;DHT22;10183;47.808;9.476;2023-05-09T07:53:24;16.00;99.90
20045;DHT22;10183;47.808;9.476;2023-05-09T07:55:50;16.30;99.90
20045;DHT22;10183;47.808;9.476;2023-05-09T07:58:17;16.30;99.90
20045;DHT22;10183;47.808;9.476;2023-05-09T08:00:43;16.10;99.90
20045;DHT22;10183;47.808;9.476;2023-05-09T08:03:16;16.40;99.90
20045;DHT22;10183;47.808;9.476;2023-05-09T08:05:42;17.00;99.90
20045;DHT22;10183;47.808;9.476;2023-05-09T08:08:08;17.90;99.90
20045;DHT22;10183;47.808;9.476;2023-05-09T08:10:35;18.40;99.90
20045;DHT22;10183;47.808;9.476;2023-05-09T08:13:01;18.70;99.90
20045;DHT22;10183;47.808;9.476;2023-05-09T08:15:27;18.80;99.90
20045;DHT22;10183;47.808;9.476;2023-05-09T08:17:53;17.90;99.90
20045;DHT22;10183;47.808;9.476;2023-05-09T08:20:20;17.40;99.90
20045;DHT22;10183;47.808;9.476;2023-05-09T08:22:46;17.00;99.90
20045;DHT22;10183;47.808;9.476;2023-05-09T08:25:12;16.40;99.90
20045;DHT22;10183;47.808;9.476;2023-05-09T08:27:41;16.70;99.90
20045;DHT22;10183;47.808;9.476;2023-05-09T08:30:07;16.50;99.90
20045;DHT22;10183;47.808;9.476;2023-05-09T08:32:34;16.30;99.90
20045;DHT22;10183;47.808;9.476;2023-05-09T08:35:00;16.40;99.90
20045;DHT22;10183;47.808;9.476;2023-05-09T08:37:26;16.60;99.90
20045;DHT22;10183;47.808;9.476;2023-05-09T08:39:53;16.30;99.90
20045;DHT22;10183;47.808;9.476;2023-05-09T08:42:21;16.20;99.90
20045;DHT22;10183;47.808;9.476;2023-05-09T08:44:48;16.40;99.90
20045;DHT22;10183;47.808;9.476;2023-05-09T08:47:14;16.80;99.90
20045;DHT22;10183;47.808;9.476;2023-05-09T08:49:41;17.30;99.90
20045;DHT22;10183;47.808;9.476;2023-05-09T08:52:08;18.20;99.90
20045;DHT22;10183;47.808;9.476;2023-05-09T08:54:36;18.70;99.90
20045;DHT22;10183;47.808;9.476;2023-05-09T08:57:03;19.00;99.90
20045;DHT22;10183;47.808;9.476;2023-05-09T08:59:30;18.70;99.90
20045;DHT22;10183;47.808;9.476;2023-05-09T09:02:00;18.70;99.90
20045;DHT22;10183;47.808;9.476;2023-05-09T09:04:26;18.90;99.90
20045;DHT22;10183;47.808;9.476;2023-05-09T09:06:53;19.00;99.90
20045;DHT22;10183;47.808;9.476;2023-05-09T09:09:20;18.70;99.90
20045;DHT22;10183;47.808;9.476;2023-05-09T09:11:47;18.70;99.90
20045;DHT22;10183;47.808;9.476;2023-05-09T09:14:22;18.30;99.90
20045;DHT22;10183;47.808;9.476;2023-05-09T09:16:52;19.00;99.90
20045;DHT22;10183;47.808;9.476;2023-05-09T09:19:21;18.90;99.90
20045;DHT22;10183;47.808;9.476;2023-05-09T09:21:51;18.30;99.90
20045;DHT22;10183;47.808;9.476;2023-05-09T09:24:21;17.90;99.90
20045;DHT22;10183;47.808;9.476;2023-05-09T09:26:49;18.10;99.90
20045;DHT22;10183;47.808;9.476;2023-05-09T09:29:17;18.60;99.90
20045;DHT22;10183;47.808;9.476;2023-05-09T09:31:44;18.60;99.90
20045;DHT22;10183;47.808;9.476;2023-05-09T09:34:12;18.40;99.90
20045;DHT22;10183;47.808;9.476;2023-05-09T09:36:39;18.30;99.90
20045;DHT22;10183;47.808;9.476;2023-05-09T09:39:05;18.10;99.90
20045;DHT22;10183;47.808;9.476;2023-05-09T09:41:38;18.30;99.90
20045;DHT22;10183;47.808;9.476;2023-05-09T09:44:08;18.10;99.90
20045;DHT22;10183;47.808;9.476;2023-05-09T09:49:12;19.00;99.90
20045;DHT22;10183;47.808;9.476;2023-05-09T09:51:39;19.00;99.90
20045;DHT22;10183;47.808;9.476;2023-05-09T09:54:07;18.90;99.90
20045;DHT22;10183;47.808;9.476;2023-05-09T09:56:38;19.10;99.90
20045;DHT22;10183;47.808;9.476;2023-05-09T09:59:08;18.40;99.90
20045;DHT22;10183;47.808;9.476;2023-05-09T10:01:35;18.70;99.90
20045;DHT22;10183;47.808;9.476;2023-05-09T10:04:02;18.40;99.90
20045;DHT22;10183;47.808;9.476;2023-05-09T10:06:28;19.00;99.90
20045;DHT22;10183;47.808;9.476;2023-05-09T10:08:54;19.00;99.90
20045;DHT22;10183;47.808;9.476;2023-05-09T10:11:20;19.70;99.90
20045;DHT22;10183;47.808;9.476;2023-05-09T10:13:46;20.00;99.90
20045;DHT22;10183;47.808;9.476;2023-05-09T10:16:12;20.00;99.90
20045;DHT22;10183;47.808;9.476;2023-05-09T10:18:41;20.00;99.90
20045;DHT22;10183;47.808;9.476;2023-05-09T10:21:08;19.80;99.90
20045;DHT22;10183;47.808;9.476;2023-05-09T10:23:37;19.80;99.90
20045;DHT22;10183;47.808;9.476;2023-05-09T10:26:22;20.50;99.90
20045;DHT22;10183;47.808;9.476;2023-05-09T10:28:54;20.20;99.90
20045;DHT22;10183;47.808;9.476;2023-05-09T10:31:24;20.30;99.90
20045;DHT22;10183;47.808;9.476;2023-05-09T10:33:54;20.20;99.90
20045;DHT22;10183;47.808;9.476;2023-05-09T10:36:23;20.40;99.90
20045;DHT22;10183;47.808;9.476;2023-05-09T10:38:53;20.50;99.90
20045;DHT22;10183;47.808;9.476;2023-05-09T10:41:20;21.40;99.90
20045;DHT22;10183;47.808;9.476;2023-05-09T10:43:47;22.00;99.90
20045;DHT22;10183;47.808;9.476;2023-05-09T10:46:14;22.10;99.90
20045;DHT22;10183;47.808;9.476;2023-05-09T10:48:41;22.40;99.90
20045;DHT22;10183;47.808;9.476;2023-05-09T10:51:08;22.10;99.90
20045;DHT22;10183;47.808;9.476;2023-05-09T10:53:46;22.10;99.90
20045;DHT22;10183;47.808;9.476;2023-05-09T10:56:29;22.00;99.90
20045;DHT22;10183;47.808;9.476;2023-05-09T10:59:00;20.20;99.90
20045;DHT22;10183;47.808;9.476;2023-05-09T11:01:36;19.90;99.90
20045;DHT22;10183;47.808;9.476;2023-05-09T11:04:12;19.50;99.90
20045;DHT22;10183;47.808;9.476;2023-05-09T11:06:49;20.20;99.90
20045;DHT22;10183;47.808;9.476;2023-05-09T11:09:32;21.60;99.90
20045;DHT22;10183;47.808;9.476;2023-05-09T11:12:11;22.10;99.90
20045;DHT22;10183;47.808;9.476;2023-05-09T11:14:48;22.80;99.90
20045;DHT22;10183;47.808;9.476;2023-05-09T11:22:18;22.20;99.90
20045;DHT22;10183;47.808;9.476;2023-05-09T11:24:45;22.50;99.90
20045;DHT22;10183;47.808;9.476;2023-05-09T11:27:23;22.80;99.90
20045;DHT22;10183;47.808;9.476;2023-05-09T11:29:56;23.60;99.90
20045;DHT22;10183;47.808;9.476;2023-05-09T11:32:30;23.40;99.90
20045;DHT22;10183;47.808;9.476;2023-05-09T11:35:11;23.30;99.90
20045;DHT22;10183;47.808;9.476;2023-05-09T11:37:51;22.10;99.90
20045;DHT22;10183;47.808;9.476;2023-05-09T11:40:21;22.90;99.90
20045;DHT22;10183;47.808;9.476;2023-05-09T11:42:49;24.30;99.90
20045;DHT22;10183;47.808;9.476;2023-05-09T11:45:18;24.70;99.90
20045;DHT22;10183;47.808;9.476;2023-05-09T11:47:48;25.40;99.90
20045;DHT22;10183;47.808;9.476;2023-05-09T11:50:16;25.80;99.90
20045;DHT22;10183;47.808;9.476;2023-05-09T11:52:42;25.80;99.90
20045;DHT22;10183;47.808;9.476;2023-05-09T11:55:10;26.20;99.90
20045;DHT22;10183;47.808;9.476;2023-05-09T11:57:41;26.70;99.90
20045;DHT22;10183;47.808;9.476;2023-05-09T12:00:09;24.90;99.90
20045;DHT22;10183;47.808;9.476;2023-05-09T12:02:37;23.90;99.90
20045;DHT22;10183;47.808;9.476;2023-05-09T12:05:10;23.90;99.90
20045;DHT22;10183;47.808;9.476;2023-05-09T12:07:38;24.10;99.90
20045;DHT22;10183;47.808;9.476;2023-05-09T12:10:24;24.00;99.90
20045;DHT22;10183;47.808;9.476;2023-05-09T12:12:52;24.30;99.90
20045;DHT22;10183;47.808;9.476;2023-05-09T12:15:20;23.80;99.90
20045;DHT22;10183;47.808;9.476;2023-05-09T12:17:47;24.00;99.90
20045;DHT22;10183;47.808;9.476;2023-05-09T12:20:25;24.90;99.90
20045;DHT22;10183;47.808;9.476;2023-05-09T12:22:54;26.60;99.90
20045;DHT22;10183;47.808;9.476;2023-05-09T12:25:21;27.20;98.40
20045;DHT22;10183;47.808;9.476;2023-05-09T12:27:47;26.70;92.00
20045;DHT22;10183;47.808;9.476;2023-05-09T12:30:14;25.20;96.40
20045;DHT22;10183;47.808;9.476;2023-05-09T12:32:41;26.60;85.10
20045;DHT22;10183;47.808;9.476;2023-05-09T12:35:09;26.30;82.80
20045;DHT22;10183;47.808;9.476;2023-05-09T12:37:35;25.30;99.90
20045;DHT22;10183;47.808;9.476;2023-05-09T12:40:08;26.40;99.90
20045;DHT22;10183;47.808;9.476;2023-05-09T12:42:36;26.50;99.90
20045;DHT22;10183;47.808;9.476;2023-05-09T12:45:02;26.80;91.40
20045;DHT22;10183;47.808;9.476;2023-05-09T12:47:31;24.90;99.90
20045;DHT22;10183;47.808;9.476;2023-05-09T12:49:58;23.20;99.90
20045;DHT22;10183;47.808;9.476;2023-05-09T12:52:31;23.00;99.90
20045;DHT22;10183;47.808;9.476;2023-05-09T12:55:06;24.00;99.90
20045;DHT22;10183;47.808;9.476;2023-05-09T12:57:33;23.50;99.90
20045;DHT22;10183;47.808;9.476;2023-05-09T13:00:01;23.10;99.90
20045;DHT22;10183;47.808;9.476;2023-05-09T13:02:41;23.10;99.90
20045;DHT22;10183;47.808;9.476;2023-05-09T13:05:16;22.40;99.90
20045;DHT22;10183;47.808;9.476;2023-05-09T13:07:50;22.00;99.90
20045;DHT22;10183;47.808;9.476;2023-05-09T13:10:23;22.60;99.90
20045;DHT22;10183;47.808;9.476;2023-05-09T13:12:51;24.50;99.90
20045;DHT22;10183;47.808;9.476;2023-05-09T13:15:19;25.70;99.90
20045;DHT22;10183;47.808;9.476;2023-05-09T13:17:47;26.80;99.90
20045;DHT22;10183;47.808;9.476;2023-05-09T13:20:14;27.20;94.90
20045;DHT22;10183;47.808;9.476;2023-05-09T13:22:40;26.00;95.50
20045;DHT22;10183;47.808;9.476;2023-05-09T13:25:06;26.30;99.90
20045;DHT22;10183;47.808;9.476;2023-05-09T13:27:33;26.60;99.90
20045;DHT22;10183;47.808;9.476;2023-05-09T13:29:59;26.40;96.90
20045;DHT22;10183;47.808;9.476;2023-05-09T13:32:25;26.40;98.80
20045;DHT22;10183;47.808;9.476;2023-05-09T13:34:52;26.80;69.70
20045;DHT22;10183;47.808;9.476;2023-05-09T13:37:18;27.20;73.50
20045;DHT22;10183;47.808;9.476;2023-05-09T13:39:44;27.00;93.20
20045;DHT22;10183;47.808;9.476;2023-05-09T13:42:11;26.10;83.30
20045;DHT22;10183;47.808;9.476;2023-05-09T13:44:37;25.70;99.90
20045;DHT22;10183;47.808;9.476;2023-05-09T13:47:03;25.50;99.90
20045;DHT22;10183;47.808;9.476;2023-05-09T13:49:33;25.30;96.20
20045;DHT22;10183;47.808;9.476;2023-05-09T13:51:59;25.00;99.90
20045;DHT22;10183;47.808;9.476;2023-05-09T13:54:25;25.20;99.90
20045;DHT22;10183;47.808;9.476;2023-05-09T13:56:54;24.70;99.90
20045;DHT22;10183;47.808;9.476;2023-05-09T13:59:20;25.30;99.90
20045;DHT22;10183;47.808;9.476;2023-05-09T14:01:46;25.60;99.90
20045;DHT22;10183;47.808;9.476;2023-05-09T14:04:12;26.30;99.90
20045;DHT22;10183;47.808;9.476;2023-05-09T14:06:39;26.50;99.90
20045;DHT22;10183;47.808;9.476;2023-05-09T14:09:05;27.10;99.90
20045;DHT22;10183;47.808;9.476;2023-05-09T14:11:32;27.40;95.60
20045;DHT22;10183;47.808;9.476;2023-05-09T14:13:58;27.70;81.10
20045;DHT22;10183;47.808;9.476;2023-05-09T14:16:24;28.90;70.00
20045;DHT22;10183;47.808;9.476;2023-05-09T14:18:50;28.30;79.60
20045;DHT22;10183;47.808;9.476;2023-05-09T14:21:17;27.20;54.50
20045;DHT22;10183;47.808;9.476;2023-05-09T14:23:43;26.40;61.30
20045;DHT22;10183;47.808;9.476;2023-05-09T14:26:09;26.70;99.90
20045;DHT22;10183;47.808;9.476;2023-05-09T14:28:35;27.30;84.80
20045;DHT22;10183;47.808;9.476;2023-05-09T14:31:03;26.30;90.40
20045;DHT22;10183;47.808;9.476;2023-05-09T14:33:29;26.90;99.90
20045;DHT22;10183;47.808;9.476;2023-05-09T14:35:55;27.40;84.00
20045;DHT22;10183;47.808;9.476;2023-05-09T14:38:21;27.90;83.40
20045;DHT22;10183;47.808;9.476;2023-05-09T14:40:47;28.40;76.10
20045;DHT22;10183;47.808;9.476;2023-05-09T14:43:14;26.20;67.90
20045;DHT22;10183;47.808;9.476;2023-05-09T14:45:40;25.30;97.00
20045;DHT22;10183;47.808;9.476;2023-05-09T14:48:06;25.80;99.90
20045;DHT22;10183;47.808;9.476;2023-05-09T14:50:32;26.40;97.00
20045;DHT22;10183;47.808;9.476;2023-05-09T14:52:58;25.80;98.50
20045;DHT22;10183;47.808;9.476;2023-05-09T14:55:25;26.60;97.50
20045;DHT22;10183;47.808;9.476;2023-05-09T14:57:52;27.40;87.20
20045;DHT22;10183;47.808;9.476;2023-05-09T15:00:19;25.40;64.90
20045;DHT22;10183;47.808;9.476;2023-05-09T15:02:45;24.60;96.00
20045;DHT22;10183;47.808;9.476;2023-05-09T15:05:12;24.60;99.90
20045;DHT22;10183;47.808;9.476;2023-05-09T15:07:38;25.10;98.20
20045;DHT22;10183;47.808;9.476;2023-05-09T15:10:05;26.10;98.10
20045;DHT22;10183;47.808;9.476;2023-05-09T15:12:32;25.60;93.90
20045;DHT22;10183;47.808;9.476;2023-05-09T15:15:17;25.50;94.10
20045;DHT22;10183;47.808;9.476;2023-05-09T15:17:45;25.10;97.10
20045;DHT22;10183;47.808;9.476;2023-05-09T15:20:12;25.00;99.90
20045;DHT22;10183;47.808;9.476;2023-05-09T15:22:45;24.00;95.70
20045;DHT22;10183;47.808;9.476;2023-05-09T15:25:12;24.00;99.90
20045;DHT22;10183;47.808;9.476;2023-05-09T15:27:38;24.20;99.90
20045;DHT22;10183;47.808;9.476;2023-05-09T15:30:05;24.40;99.90
20045;DHT22;10183;47.808;9.476;2023-05-09T15:32:32;24.10;99.90
20045;DHT22;10183;47.808;9.476;2023-05-09T15:34:58;23.40;99.90
20045;DHT22;10183;47.808;9.476;2023-05-09T15:37:24;22.70;99.90
20045;DHT22;10183;47.808;9.476;2023-05-09T15:39:51;22.00;99.90
20045;DHT22;10183;47.808;9.476;2023-05-09T15:42:17;21.70;99.90
20045;DHT22;10183;47.808;9.476;2023-05-09T15:44:44;21.80;99.90
20045;DHT22;10183;47.808;9.476;2023-05-09T15:47:12;21.30;99.90
20045;DHT22;10183;47.808;9.476;2023-05-09T15:49:38;20.90;99.90
20045;DHT22;10183;47.808;9.476;2023-05-09T15:52:06;20.90;99.90
20045;DHT22;10183;47.808;9.476;2023-05-09T15:54:34;20.60;99.90
20045;DHT22;10183;47.808;9.476;2023-05-09T15:57:00;20.50;99.90